sensor_id;sensor_type;location;lat;lon;timestamp;pressure;altitude;pressure_sealevel;temperature;humidity
53900;BME280;40509;32.858;-116.858;2023-08-17T00:02:24;97533.16;;;29.84;46.99
53900;BME280;40509;32.858;-116.858;2023-08-17T00:04:51;97528.28;;;29.87;47.25
53900;BME280;40509;32.858;-116.858;2023-08-17T00:07:18;97532.88;;;29.99;46.79
53900;BME280;40509;32.858;-116.858;2023-08-17T00:09:44;97528.75;;;30.03;46.64
53900;BME280;40509;32.858;-116.858;2023-08-17T00:12:11;97533.13;;;29.97;46.49
53900;BME280;40509;32.858;-116.858;2023-08-17T00:14:38;97530.22;;;29.99;46.75
53900;BME280;40509;32.858;-116.858;2023-08-17T00:17:05;97534.25;;;30.08;46.77
53900;BME280;40509;32.858;-116.858;2023-08-17T00:19:32;97543.50;;;29.67;47.22
53900;BME280;40509;32.858;-116.858;2023-08-17T00:21:59;97537.63;;;29.06;47.50
53900;BME280;40509;32.858;-116.858;2023-08-17T00:24:26;97540.16;;;28.74;47.28
53900;BME280;40509;32.858;-116.858;2023-08-17T00:26:53;97541.41;;;28.65;46.29
53900;BME280;40509;32.858;-116.858;2023-08-17T00:29:20;97547.91;;;28.49;45.51
53900;BME280;40509;32.858;-116.858;2023-08-17T00:31:47;97540.56;;;28.31;45.29
53900;BME280;40509;32.858;-116.858;2023-08-17T00:34:14;97539.78;;;28.23;44.81
53900;BME280;40509;32.858;-116.858;2023-08-17T00:36:41;97532.44;;;28.12;44.08
53900;BME280;40509;32.858;-116.858;2023-08-17T00:39:08;97540.13;;;27.87;43.90
53900;BME280;40509;32.858;-116.858;2023-08-17T00:41:35;97547.44;;;27.78;43.31
53900;BME280;40509;32.858;-116.858;2023-08-17T00:44:02;97547.66;;;27.83;42.98
53900;BME280;40509;32.858;-116.858;2023-08-17T00:46:29;97553.63;;;27.99;42.20
53900;BME280;40509;32.858;-116.858;2023-08-17T00:48:56;97554.41;;;27.92;41.41
53900;BME280;40509;32.858;-116.858;2023-08-17T00:51:25;97555.69;;;28.10;40.68
53900;BME280;40509;32.858;-116.858;2023-08-17T00:53:53;97552.09;;;27.63;41.69
53900;BME280;40509;32.858;-116.858;2023-08-17T00:56:21;97558.81;;;27.52;41.55
53900;BME280;40509;32.858;-116.858;2023-08-17T00:58:49;97556.56;;;27.49;41.23
53900;BME280;40509;32.858;-116.858;2023-08-17T01:01:16;97553.34;;;27.67;40.85
53900;BME280;40509;32.858;-116.858;2023-08-17T01:03:43;97549.03;;;27.66;40.38
53900;BME280;40509;32.858;-116.858;2023-08-17T01:06:10;97562.84;;;27.41;40.11
53900;BME280;40509;32.858;-116.858;2023-08-17T01:08:37;97561.59;;;27.37;40.26
53900;BME280;40509;32.858;-116.858;2023-08-17T01:16:36;97568.00;;;27.14;39.73
53900;BME280;40509;32.858;-116.858;2023-08-17T01:19:07;97568.59;;;27.09;39.51
53900;BME280;40509;32.858;-116.858;2023-08-17T01:21:36;97580.91;;;26.89;39.24
53900;BME280;40509;32.858;-116.858;2023-08-17T01:24:05;97582.59;;;27.03;39.05
53900;BME280;40509;32.858;-116.858;2023-08-17T01:26:32;97588.47;;;26.92;38.63
53900;BME280;40509;32.858;-116.858;2023-08-17T01:28:59;97586.56;;;26.79;39.55
53900;BME280;40509;32.858;-116.858;2023-08-17T01:31:29;97589.66;;;27.24;38.45
53900;BME280;40509;32.858;-116.858;2023-08-17T01:34:05;97575.72;;;27.51;38.81
53900;BME280;40509;32.858;-116.858;2023-08-17T01:36:35;97578.84;;;27.26;38.80
53900;BME280;40509;32.858;-116.858;2023-08-17T01:39:06;97573.09;;;27.09;38.52
53900;BME280;40509;32.858;-116.858;2023-08-17T01:41:34;97571.03;;;26.76;38.95
53900;BME280;40509;32.858;-116.858;2023-08-17T01:44:01;97581.81;;;26.74;38.39
53900;BME280;40509;32.858;-116.858;2023-08-17T01:46:32;97577.16;;;26.77;38.38
53900;BME280;40509;32.858;-116.858;2023-08-17T01:48:59;97576.09;;;26.71;38.53
53900;BME280;40509;32.858;-116.858;2023-08-17T01:51:26;97582.66;;;27.10;38.06
53900;BME280;40509;32.858;-116.858;2023-08-17T01:53:54;97581.72;;;27.24;37.77
53900;BME280;40509;32.858;-116.858;2023-08-17T01:56:20;97580.47;;;27.20;38.03
53900;BME280;40509;32.858;-116.858;2023-08-17T01:58:47;97579.06;;;26.89;38.40
53900;BME280;40509;32.858;-116.858;2023-08-17T02:01:14;97580.66;;;26.55;38.50
53900;BME280;40509;32.858;-116.858;2023-08-17T02:03:41;97580.09;;;26.67;38.19
53900;BME280;40509;32.858;-116.858;2023-08-17T02:06:09;97589.41;;;26.56;39.25
53900;BME280;40509;32.858;-116.858;2023-08-17T02:08:37;97596.06;;;27.02;38.31
53900;BME280;40509;32.858;-116.858;2023-08-17T02:11:04;97598.22;;;27.20;37.71
53900;BME280;40509;32.858;-116.858;2023-08-17T02:13:31;97602.28;;;27.22;37.89
53900;BME280;40509;32.858;-116.858;2023-08-17T02:16:04;97599.75;;;27.07;37.65
53900;BME280;40509;32.858;-116.858;2023-08-17T02:18:30;97601.00;;;26.77;38.12
53900;BME280;40509;32.858;-116.858;2023-08-17T02:20:59;97602.22;;;26.52;38.12
53900;BME280;40509;32.858;-116.858;2023-08-17T02:23:26;97607.31;;;26.75;37.67
53900;BME280;40509;32.858;-116.858;2023-08-17T02:25:53;97604.25;;;26.79;37.62
53900;BME280;40509;32.858;-116.858;2023-08-17T02:28:21;97610.69;;;26.98;37.22
53900;BME280;40509;32.858;-116.858;2023-08-17T02:30:48;97615.63;;;27.07;37.23
53900;BME280;40509;32.858;-116.858;2023-08-17T02:33:15;97609.78;;;27.12;37.67
53900;BME280;40509;32.858;-116.858;2023-08-17T02:35:42;97621.59;;;26.81;37.48
53900;BME280;40509;32.858;-116.858;2023-08-17T02:38:09;97608.66;;;26.43;37.75
53900;BME280;40509;32.858;-116.858;2023-08-17T02:40:36;97622.00;;;26.56;37.81
53900;BME280;40509;32.858;-116.858;2023-08-17T02:43:03;97618.63;;;26.69;37.53
53900;BME280;40509;32.858;-116.858;2023-08-17T02:45:30;97620.78;;;26.81;36.91
53900;BME280;40509;32.858;-116.858;2023-08-17T02:47:57;97627.13;;;26.86;36.75
53900;BME280;40509;32.858;-116.858;2023-08-17T02:50:24;97628.47;;;27.04;36.42
53900;BME280;40509;32.858;-116.858;2023-08-17T02:52:51;97634.94;;;26.95;36.95
53900;BME280;40509;32.858;-116.858;2023-08-17T02:55:18;97631.25;;;26.67;37.50
53900;BME280;40509;32.858;-116.858;2023-08-17T02:57:44;97634.44;;;26.63;37.15
53900;BME280;40509;32.858;-116.858;2023-08-17T03:00:12;97634.44;;;26.63;37.40
53900;BME280;40509;32.858;-116.858;2023-08-17T03:02:39;97639.47;;;26.72;36.96
53900;BME280;40509;32.858;-116.858;2023-08-17T03:05:06;97640.53;;;26.78;36.49
53900;BME280;40509;32.858;-116.858;2023-08-17T03:07:33;97648.69;;;27.12;36.17
53900;BME280;40509;32.858;-116.858;2023-08-17T03:10:00;97643.78;;;27.08;36.55
53900;BME280;40509;32.858;-116.858;2023-08-17T03:12:27;97649.59;;;27.25;36.38
53900;BME280;40509;32.858;-116.858;2023-08-17T03:14:54;97649.25;;;27.35;36.38
53900;BME280;40509;32.858;-116.858;2023-08-17T03:17:20;97657.47;;;27.40;36.08
53900;BME280;40509;32.858;-116.858;2023-08-17T03:19:47;97656.28;;;27.50;36.59
53900;BME280;40509;32.858;-116.858;2023-08-17T03:22:16;97657.09;;;27.50;36.18
53900;BME280;40509;32.858;-116.858;2023-08-17T03:24:42;97651.81;;;27.57;36.84
53900;BME280;40509;32.858;-116.858;2023-08-17T03:27:09;97652.63;;;27.57;36.96
53900;BME280;40509;32.858;-116.858;2023-08-17T03:29:36;97661.22;;;27.59;37.09
53900;BME280;40509;32.858;-116.858;2023-08-17T03:32:03;97656.75;;;27.67;36.67
53900;BME280;40509;32.858;-116.858;2023-08-17T03:34:30;97665.72;;;27.66;36.80
53900;BME280;40509;32.858;-116.858;2023-08-17T03:36:57;97663.31;;;27.71;37.28
53900;BME280;40509;32.858;-116.858;2023-08-17T03:39:25;97663.69;;;27.68;36.99
53900;BME280;40509;32.858;-116.858;2023-08-17T03:41:52;97666.19;;;27.76;37.52
53900;BME280;40509;32.858;-116.858;2023-08-17T03:44:19;97669.25;;;27.73;37.70
53900;BME280;40509;32.858;-116.858;2023-08-17T03:46:45;97667.41;;;27.80;37.29
53900;BME280;40509;32.858;-116.858;2023-08-17T03:49:13;97671.50;;;27.83;37.76
53900;BME280;40509;32.858;-116.858;2023-08-17T03:51:40;97669.88;;;27.82;38.04
53900;BME280;40509;32.858;-116.858;2023-08-17T03:54:07;97672.97;;;27.85;37.84
53900;BME280;40509;32.858;-116.858;2023-08-17T03:56:34;97670.69;;;27.89;38.22
53900;BME280;40509;32.858;-116.858;2023-08-17T03:59:01;97681.50;;;27.87;38.23
53900;BME280;40509;32.858;-116.858;2023-08-17T04:01:28;97682.38;;;27.95;38.34
53900;BME280;40509;32.858;-116.858;2023-08-17T04:03:56;97684.41;;;27.99;38.23
53900;BME280;40509;32.858;-116.858;2023-08-17T04:06:23;97694.06;;;28.00;38.59
53900;BME280;40509;32.858;-116.858;2023-08-17T04:08:49;97688.75;;;28.00;38.22
53900;BME280;40509;32.858;-116.858;2023-08-17T04:11:17;97698.50;;;28.00;38.62
53900;BME280;40509;32.858;-116.858;2023-08-17T04:13:43;97698.97;;;28.03;38.48
53900;BME280;40509;32.858;-116.858;2023-08-17T04:16:11;97704.47;;;28.02;38.46
53900;BME280;40509;32.858;-116.858;2023-08-17T04:18:38;97698.97;;;28.10;38.74
53900;BME280;40509;32.858;-116.858;2023-08-17T04:21:05;97702.03;;;28.07;38.57
53900;BME280;40509;32.858;-116.858;2023-08-17T04:23:32;97708.34;;;28.06;39.24
53900;BME280;40509;32.858;-116.858;2023-08-17T04:25:59;97711.63;;;28.08;39.04
53900;BME280;40509;32.858;-116.858;2023-08-17T04:28:28;97715.31;;;28.07;39.45
53900;BME280;40509;32.858;-116.858;2023-08-17T04:30:55;97712.44;;;28.08;39.11
53900;BME280;40509;32.858;-116.858;2023-08-17T04:33:22;97714.50;;;28.13;39.15
53900;BME280;40509;32.858;-116.858;2023-08-17T04:35:49;97719.41;;;28.09;39.45
53900;BME280;40509;32.858;-116.858;2023-08-17T04:38:16;97712.47;;;28.15;39.30
53900;BME280;40509;32.858;-116.858;2023-08-17T04:40:44;97709.19;;;28.13;39.84
53900;BME280;40509;32.858;-116.858;2023-08-17T04:43:12;97715.53;;;28.12;39.41
53900;BME280;40509;32.858;-116.858;2023-08-17T04:45:40;97718.19;;;28.12;39.60
53900;BME280;40509;32.858;-116.858;2023-08-17T04:48:06;97710.03;;;28.14;39.53
53900;BME280;40509;32.858;-116.858;2023-08-17T04:50:33;97715.34;;;28.14;40.17
53900;BME280;40509;32.858;-116.858;2023-08-17T04:53:01;97709.81;;;28.15;40.14
53900;BME280;40509;32.858;-116.858;2023-08-17T04:55:29;97716.78;;;28.16;40.22
53900;BME280;40509;32.858;-116.858;2023-08-17T04:57:58;97711.47;;;28.16;40.22
53900;BME280;40509;32.858;-116.858;2023-08-17T05:00:26;97709.41;;;28.18;39.87
53900;BME280;40509;32.858;-116.858;2023-08-17T05:02:57;97719.63;;;28.21;40.00
53900;BME280;40509;32.858;-116.858;2023-08-17T05:05:28;97716.38;;;28.19;40.13
53900;BME280;40509;32.858;-116.858;2023-08-17T05:07:56;97719.03;;;28.19;40.59
53900;BME280;40509;32.858;-116.858;2023-08-17T05:10:23;97722.47;;;28.20;40.71
53900;BME280;40509;32.858;-116.858;2023-08-17T05:12:50;97718.81;;;28.21;40.36
53900;BME280;40509;32.858;-116.858;2023-08-17T05:15:17;97728.41;;;28.22;40.82
53900;BME280;40509;32.858;-116.858;2023-08-17T05:17:44;97728.81;;;28.19;40.97
53900;BME280;40509;32.858;-116.858;2023-08-17T05:20:12;97728.63;;;28.20;40.55
53900;BME280;40509;32.858;-116.858;2023-08-17T05:22:42;97725.13;;;28.20;40.70
53900;BME280;40509;32.858;-116.858;2023-08-17T05:25:08;97725.13;;;28.20;41.14
53900;BME280;40509;32.858;-116.858;2023-08-17T05:27:38;97721.06;;;28.24;41.06
53900;BME280;40509;32.858;-116.858;2023-08-17T05:30:05;97721.47;;;28.21;41.17
53900;BME280;40509;32.858;-116.858;2023-08-17T05:32:32;97709.22;;;28.20;40.85
53900;BME280;40509;32.858;-116.858;2023-08-17T05:34:58;97709.84;;;28.22;40.86
53900;BME280;40509;32.858;-116.858;2023-08-17T05:37:26;97717.78;;;28.15;41.24
53900;BME280;40509;32.858;-116.858;2023-08-17T05:39:52;97717.16;;;28.13;40.97
53900;BME280;40509;32.858;-116.858;2023-08-17T05:42:20;97715.34;;;28.14;40.90
53900;BME280;40509;32.858;-116.858;2023-08-17T05:44:47;97720.22;;;28.17;40.77
53900;BME280;40509;32.858;-116.858;2023-08-17T05:47:14;97712.06;;;28.18;41.34
53900;BME280;40509;32.858;-116.858;2023-08-17T05:49:44;97712.06;;;28.18;41.29
53900;BME280;40509;32.858;-116.858;2023-08-17T05:52:11;97717.38;;;28.18;40.98
53900;BME280;40509;32.858;-116.858;2023-08-17T05:54:39;97718.00;;;28.20;41.07
53900;BME280;40509;32.858;-116.858;2023-08-17T05:57:06;97720.22;;;28.17;41.53
53900;BME280;40509;32.858;-116.858;2023-08-17T05:59:33;97719.22;;;28.18;41.30
53900;BME280;40509;32.858;-116.858;2023-08-17T06:02:00;97710.41;;;28.17;41.14
53900;BME280;40509;32.858;-116.858;2023-08-17T06:04:27;97708.81;;;28.16;41.11
53900;BME280;40509;32.858;-116.858;2023-08-17T06:06:54;97707.16;;;28.15;41.55
53900;BME280;40509;32.858;-116.858;2023-08-17T06:09:21;97699.81;;;28.17;41.39
53900;BME280;40509;32.858;-116.858;2023-08-17T06:11:48;97693.69;;;28.17;41.55
53900;BME280;40509;32.858;-116.858;2023-08-17T06:14:14;97695.53;;;28.16;41.55
53900;BME280;40509;32.858;-116.858;2023-08-17T06:16:42;97706.34;;;28.15;41.80
53900;BME280;40509;32.858;-116.858;2023-08-17T06:19:09;97707.16;;;28.15;41.59
53900;BME280;40509;32.858;-116.858;2023-08-17T06:21:36;97712.28;;;28.17;41.85
53900;BME280;40509;32.858;-116.858;2023-08-17T06:24:02;97708.81;;;28.16;41.38
53900;BME280;40509;32.858;-116.858;2023-08-17T06:26:30;97708.59;;;28.18;41.44
53900;BME280;40509;32.858;-116.858;2023-08-17T06:28:57;97716.78;;;28.16;41.59
53900;BME280;40509;32.858;-116.858;2023-08-17T06:31:24;97711.25;;;28.18;42.05
53900;BME280;40509;32.858;-116.858;2023-08-17T06:33:54;97714.94;;;28.17;41.70
53900;BME280;40509;32.858;-116.858;2023-08-17T06:36:41;97711.06;;;28.19;41.44
53900;BME280;40509;32.858;-116.858;2023-08-17T06:39:08;97707.78;;;28.17;41.77
53900;BME280;40509;32.858;-116.858;2023-08-17T06:41:35;97705.94;;;28.18;42.08
53900;BME280;40509;32.858;-116.858;2023-08-17T06:44:02;97707.16;;;28.15;41.73
53900;BME280;40509;32.858;-116.858;2023-08-17T06:46:29;97694.91;;;28.14;41.75
53900;BME280;40509;32.858;-116.858;2023-08-17T06:48:56;97700.00;;;28.16;41.80
53900;BME280;40509;32.858;-116.858;2023-08-17T06:51:23;97706.16;;;28.16;41.73
53900;BME280;40509;32.858;-116.858;2023-08-17T06:53:49;97701.44;;;28.12;42.26
53900;BME280;40509;32.858;-116.858;2023-08-17T06:56:16;97699.22;;;28.15;41.81
53900;BME280;40509;32.858;-116.858;2023-08-17T06:58:43;97693.69;;;28.17;42.08
53900;BME280;40509;32.858;-116.858;2023-08-17T07:01:10;97686.75;;;28.16;41.92
53900;BME280;40509;32.858;-116.858;2023-08-17T07:03:37;97688.38;;;28.17;42.24
53900;BME280;40509;32.858;-116.858;2023-08-17T07:06:04;97679.63;;;28.16;42.37
53900;BME280;40509;32.858;-116.858;2023-08-17T07:08:31;97678.19;;;28.14;42.22
53900;BME280;40509;32.858;-116.858;2023-08-17T07:10:59;97687.97;;;28.13;42.07
53900;BME280;40509;32.858;-116.858;2023-08-17T07:13:26;97687.16;;;28.13;42.49
53900;BME280;40509;32.858;-116.858;2023-08-17T07:15:52;97683.06;;;28.10;42.12
53900;BME280;40509;32.858;-116.858;2023-08-17T07:18:20;97681.84;;;28.13;42.54
53900;BME280;40509;32.858;-116.858;2023-08-17T07:20:46;97683.50;;;28.14;42.50
53900;BME280;40509;32.858;-116.858;2023-08-17T07:23:13;97687.16;;;28.13;42.31
53900;BME280;40509;32.858;-116.858;2023-08-17T07:25:40;97687.97;;;28.13;42.21
53900;BME280;40509;32.858;-116.858;2023-08-17T07:28:07;97686.53;;;28.17;42.15
53900;BME280;40509;32.858;-116.858;2023-08-17T07:30:34;97681.03;;;28.12;42.38
53900;BME280;40509;32.858;-116.858;2023-08-17T07:33:01;97684.72;;;28.18;42.59
53900;BME280;40509;32.858;-116.858;2023-08-17T07:35:28;97680.84;;;28.14;42.66
53900;BME280;40509;32.858;-116.858;2023-08-17T07:37:55;97692.03;;;28.09;42.36
53900;BME280;40509;32.858;-116.858;2023-08-17T07:40:22;97691.66;;;28.12;42.31
53900;BME280;40509;32.858;-116.858;2023-08-17T07:42:49;97691.66;;;28.12;42.55
53900;BME280;40509;32.858;-116.858;2023-08-17T07:45:15;97697.13;;;28.10;42.93
53900;BME280;40509;32.858;-116.858;2023-08-17T07:47:42;97693.69;;;28.10;42.50
53900;BME280;40509;32.858;-116.858;2023-08-17T07:50:09;97692.22;;;28.07;42.62
53900;BME280;40509;32.858;-116.858;2023-08-17T07:52:36;97692.22;;;28.07;42.68
53900;BME280;40509;32.858;-116.858;2023-08-17T07:55:03;97685.50;;;28.05;43.09
53900;BME280;40509;32.858;-116.858;2023-08-17T07:57:31;97681.41;;;28.09;42.62
53900;BME280;40509;32.858;-116.858;2023-08-17T07:59:58;97683.47;;;28.07;43.05
53900;BME280;40509;32.858;-116.858;2023-08-17T08:02:25;97685.50;;;28.12;43.07
53900;BME280;40509;32.858;-116.858;2023-08-17T08:04:51;97678.16;;;28.07;42.84
53900;BME280;40509;32.858;-116.858;2023-08-17T08:07:18;97680.59;;;28.08;42.59
53900;BME280;40509;32.858;-116.858;2023-08-17T08:09:45;97676.09;;;28.09;42.79
53900;BME280;40509;32.858;-116.858;2023-08-17T08:12:12;97674.66;;;28.06;42.75
53900;BME280;40509;32.858;-116.858;2023-08-17T08:14:38;97673.47;;;28.09;42.65
53900;BME280;40509;32.858;-116.858;2023-08-17T08:17:05;97683.88;;;28.10;42.64
53900;BME280;40509;32.858;-116.858;2023-08-17T08:19:32;97680.38;;;28.03;42.73
53900;BME280;40509;32.858;-116.858;2023-08-17T08:21:59;97667.53;;;28.07;42.73
53900;BME280;40509;32.858;-116.858;2023-08-17T08:24:30;97668.56;;;28.06;42.91
53900;BME280;40509;32.858;-116.858;2023-08-17T08:27:00;97665.84;;;27.99;43.21
53900;BME280;40509;32.858;-116.858;2023-08-17T08:29:28;97666.91;;;28.05;43.36
53900;BME280;40509;32.858;-116.858;2023-08-17T08:31:54;97675.88;;;28.04;43.42
53900;BME280;40509;32.858;-116.858;2023-08-17T08:34:23;97679.94;;;28.00;42.94
53900;BME280;40509;32.858;-116.858;2023-08-17T08:36:50;97662.41;;;27.99;43.28
53900;BME280;40509;32.858;-116.858;2023-08-17T08:39:17;97663.19;;;27.99;42.99
53900;BME280;40509;32.858;-116.858;2023-08-17T08:41:44;97665.84;;;27.99;42.96
53900;BME280;40509;32.858;-116.858;2023-08-17T08:44:11;97661.22;;;28.01;43.38
53900;BME280;40509;32.858;-116.858;2023-08-17T08:46:39;97650.75;;;28.00;43.39
53900;BME280;40509;32.858;-116.858;2023-08-17T08:49:09;97660.16;;;28.02;42.90
53900;BME280;40509;32.858;-116.858;2023-08-17T08:51:44;97650.94;;;27.98;43.26
53900;BME280;40509;32.858;-116.858;2023-08-17T08:54:12;97657.13;;;28.05;43.00
53900;BME280;40509;32.858;-116.858;2023-08-17T08:56:41;97665.69;;;28.01;43.11
53900;BME280;40509;32.858;-116.858;2023-08-17T08:59:09;97659.75;;;27.99;43.30
53900;BME280;40509;32.858;-116.858;2023-08-17T09:01:37;97652.59;;;27.99;43.25
53900;BME280;40509;32.858;-116.858;2023-08-17T09:04:04;97642.97;;;27.98;43.32
53900;BME280;40509;32.858;-116.858;2023-08-17T09:06:32;97645.41;;;27.93;43.52
53900;BME280;40509;32.858;-116.858;2023-08-17T09:09:01;97657.66;;;27.94;43.24
53900;BME280;40509;32.858;-116.858;2023-08-17T09:11:29;97656.03;;;27.93;43.42
53900;BME280;40509;32.858;-116.858;2023-08-17T09:13:56;97652.75;;;27.91;43.81
53900;BME280;40509;32.858;-116.858;2023-08-17T09:16:23;97648.47;;;27.90;43.49
53900;BME280;40509;32.858;-116.858;2023-08-17T09:18:51;97648.91;;;27.93;43.58
53900;BME280;40509;32.858;-116.858;2023-08-17T09:21:22;97650.91;;;27.91;43.38
53900;BME280;40509;32.858;-116.858;2023-08-17T09:23:55;97658.88;;;27.91;43.90
53900;BME280;40509;32.858;-116.858;2023-08-17T09:26:22;97642.78;;;27.86;43.83
53900;BME280;40509;32.858;-116.858;2023-08-17T09:28:52;97651.31;;;27.88;43.67
53900;BME280;40509;32.858;-116.858;2023-08-17T09:31:24;97638.06;;;27.88;43.86
53900;BME280;40509;32.858;-116.858;2023-08-17T09:33:51;97637.66;;;27.91;43.40
53900;BME280;40509;32.858;-116.858;2023-08-17T09:36:22;97638.06;;;27.88;43.54
53900;BME280;40509;32.858;-116.858;2023-08-17T09:38:49;97633.16;;;27.85;43.63
53900;BME280;40509;32.858;-116.858;2023-08-17T09:41:20;97629.31;;;27.88;43.45
53900;BME280;40509;32.858;-116.858;2023-08-17T09:43:47;97633.97;;;27.86;43.52
53900;BME280;40509;32.858;-116.858;2023-08-17T09:46:14;97633.78;;;27.87;43.57
53900;BME280;40509;32.858;-116.858;2023-08-17T09:48:43;97632.16;;;27.86;43.48
53900;BME280;40509;32.858;-116.858;2023-08-17T09:51:10;97633.16;;;27.85;43.79
53900;BME280;40509;32.858;-116.858;2023-08-17T09:53:37;97633.16;;;27.85;43.52
53900;BME280;40509;32.858;-116.858;2023-08-17T09:56:05;97632.75;;;27.82;43.71
53900;BME280;40509;32.858;-116.858;2023-08-17T09:58:38;97629.28;;;27.81;44.17
53900;BME280;40509;32.858;-116.858;2023-08-17T10:01:05;97623.13;;;27.81;44.28
53900;BME280;40509;32.858;-116.858;2023-08-17T10:03:33;97623.78;;;27.83;44.14
53900;BME280;40509;32.858;-116.858;2023-08-17T10:06:04;97622.53;;;27.79;44.11
53900;BME280;40509;32.858;-116.858;2023-08-17T10:08:31;97622.34;;;27.80;43.67
53900;BME280;40509;32.858;-116.858;2023-08-17T10:10:59;97621.53;;;27.80;43.83
53900;BME280;40509;32.858;-116.858;2023-08-17T10:13:35;97614.56;;;27.79;44.01
53900;BME280;40509;32.858;-116.858;2023-08-17T10:18:39;97613.94;;;27.76;44.34
53900;BME280;40509;32.858;-116.858;2023-08-17T10:21:31;97622.09;;;27.75;44.37
53900;BME280;40509;32.858;-116.858;2023-08-17T10:23:57;97616.81;;;27.82;43.74
53900;BME280;40509;32.858;-116.858;2023-08-17T10:26:24;97606.00;;;27.76;44.33
53900;BME280;40509;32.858;-116.858;2023-08-17T10:28:52;97606.19;;;27.75;44.05
53900;BME280;40509;32.858;-116.858;2023-08-17T10:31:20;97609.28;;;27.79;43.88
53900;BME280;40509;32.858;-116.858;2023-08-17T10:33:47;97611.50;;;27.75;44.12
53900;BME280;40509;32.858;-116.858;2023-08-17T10:36:14;97615.16;;;27.74;44.15
53900;BME280;40509;32.858;-116.858;2023-08-17T10:38:42;97619.66;;;27.73;44.16
53900;BME280;40509;32.858;-116.858;2023-08-17T10:41:12;97622.50;;;27.72;44.10
53900;BME280;40509;32.858;-116.858;2023-08-17T10:43:55;97607.59;;;27.71;44.48
53900;BME280;40509;32.858;-116.858;2023-08-17T10:46:35;97598.00;;;27.70;44.50
53900;BME280;40509;32.858;-116.858;2023-08-17T10:49:05;97612.72;;;27.72;44.46
53900;BME280;40509;32.858;-116.858;2023-08-17T10:51:33;97602.91;;;27.66;44.44
53900;BME280;40509;32.858;-116.858;2023-08-17T10:54:02;97602.50;;;27.69;44.37
53900;BME280;40509;32.858;-116.858;2023-08-17T10:56:29;97591.69;;;27.64;44.65
53900;BME280;40509;32.858;-116.858;2023-08-17T10:59:00;97591.09;;;27.69;44.25
53900;BME280;40509;32.858;-116.858;2023-08-17T11:01:34;97596.78;;;27.66;44.56
53900;BME280;40509;32.858;-116.858;2023-08-17T11:04:11;97597.59;;;27.66;44.54
53900;BME280;40509;32.858;-116.858;2023-08-17T11:06:39;97600.47;;;27.65;44.57
53900;BME280;40509;32.858;-116.858;2023-08-17T11:09:07;97608.59;;;27.63;44.68
53900;BME280;40509;32.858;-116.858;2023-08-17T11:11:34;97594.31;;;27.64;44.59
53900;BME280;40509;32.858;-116.858;2023-08-17T11:14:02;97595.16;;;27.65;44.57
53900;BME280;40509;32.858;-116.858;2023-08-17T11:16:29;97601.69;;;27.62;44.72
53900;BME280;40509;32.858;-116.858;2023-08-17T11:18:56;97605.53;;;27.59;44.68
53900;BME280;40509;32.858;-116.858;2023-08-17T11:21:25;97596.75;;;27.59;44.35
53900;BME280;40509;32.858;-116.858;2023-08-17T11:23:54;97595.13;;;27.58;44.45
53900;BME280;40509;32.858;-116.858;2023-08-17T11:26:21;97592.28;;;27.59;44.57
53900;BME280;40509;32.858;-116.858;2023-08-17T11:28:48;97591.03;;;27.55;44.78
53900;BME280;40509;32.858;-116.858;2023-08-17T11:31:16;97584.31;;;27.53;44.54
53900;BME280;40509;32.858;-116.858;2023-08-17T11:33:43;97587.97;;;27.52;44.93
53900;BME280;40509;32.858;-116.858;2023-08-17T11:36:11;97581.44;;;27.54;44.84
53900;BME280;40509;32.858;-116.858;2023-08-17T11:38:39;97582.66;;;27.52;44.91
53900;BME280;40509;32.858;-116.858;2023-08-17T11:41:06;97580.81;;;27.52;44.86
53900;BME280;40509;32.858;-116.858;2023-08-17T11:43:36;97583.28;;;27.54;44.92
53900;BME280;40509;32.858;-116.858;2023-08-17T11:46:04;97581.63;;;27.46;45.03
53900;BME280;40509;32.858;-116.858;2023-08-17T11:48:31;97576.13;;;27.48;44.74
53900;BME280;40509;32.858;-116.858;2023-08-17T11:50:58;97578.78;;;27.48;44.79
53900;BME280;40509;32.858;-116.858;2023-08-17T11:53:26;97569.59;;;27.43;44.83
53900;BME280;40509;32.858;-116.858;2023-08-17T11:55:59;97579.19;;;27.45;44.65
53900;BME280;40509;32.858;-116.858;2023-08-17T11:58:36;97573.03;;;27.44;44.67
53900;BME280;40509;32.858;-116.858;2023-08-17T12:01:03;97578.34;;;27.44;44.91
53900;BME280;40509;32.858;-116.858;2023-08-17T12:03:35;97581.63;;;27.46;44.97
53900;BME280;40509;32.858;-116.858;2023-08-17T12:06:02;97581.00;;;27.44;44.69
53900;BME280;40509;32.858;-116.858;2023-08-17T12:08:29;97577.75;;;27.42;44.62
53900;BME280;40509;32.858;-116.858;2023-08-17T12:10:56;97582.19;;;27.41;44.92
53900;BME280;40509;32.858;-116.858;2023-08-17T12:13:32;97582.84;;;27.43;44.62
53900;BME280;40509;32.858;-116.858;2023-08-17T12:16:01;97581.41;;;27.41;45.04
53900;BME280;40509;32.858;-116.858;2023-08-17T12:18:32;97590.16;;;27.41;45.12
53900;BME280;40509;32.858;-116.858;2023-08-17T12:20:58;97583.03;;;27.42;44.89
53900;BME280;40509;32.858;-116.858;2023-08-17T12:23:27;97596.28;;;27.42;44.61
53900;BME280;40509;32.858;-116.858;2023-08-17T12:25:54;97593.22;;;27.38;45.05
53900;BME280;40509;32.858;-116.858;2023-08-17T12:28:22;97594.03;;;27.39;45.09
53900;BME280;40509;32.858;-116.858;2023-08-17T12:30:56;97605.00;;;27.36;45.12
53900;BME280;40509;32.858;-116.858;2023-08-17T12:33:23;97606.84;;;27.35;44.68
53900;BME280;40509;32.858;-116.858;2023-08-17T12:35:51;97609.69;;;27.34;44.79
53900;BME280;40509;32.858;-116.858;2023-08-17T12:38:18;97609.69;;;27.34;44.83
53900;BME280;40509;32.858;-116.858;2023-08-17T12:40:45;97615.78;;;27.34;44.85
53900;BME280;40509;32.858;-116.858;2023-08-17T12:43:12;97616.00;;;27.33;44.88